Startpagina
METAR-TAF:

METAR-TAF

Vliegvelden :

Hunt Field

Lander, Wyoming, Verenigde Staten

breedte: 42-48-53N, lengte: 108-43-41W, hoogte: 1703 m

Actueel weer

Dit bericht is 49 minuten geleden gemaakt, om 09:53 UTC
Weinig wind
Temperatuur 12°C
Vochtigheid 50%
Druk 1016 hPa
Zicht: 16.1 km
Onbewolkt

METAR: KLND 190953Z AUTO 00000KT 10SM CLR 12/02 A3000 RMK AO2 SLP091 T01170017

Tijdstip: 04:42 (10:42 UTC)

Verwachting

Dit bericht is 5 uur en het 16 minuten geleden gemaakt, om 05:26 UTC
Verwachting geldig van 19 om 06 UTC tot 20 om 06 UTC
Wind 5 kt uit variabele richting
Zicht: 10 km
Verspreide wolken op 11000 ft
Van 19 om 2100 UTC
Wind 8 kt uit het oostnoordoosten
Zicht: 10 km
Onbewolkt
Van 20 om 0500 UTC
Wind 6 kt uit het westnoordwesten
Zicht: 10 km
Gebroken wolken op 2400 ft
buien in de omgeving

TAF: KLND 190526Z 1906/2006 VRB05KT P6SM SCT110 FM192100 06008KT P6SM SKC FM200500 30006KT P6SM VCSH BKN024

Waarnemingen en weersverwachtingen van meer dan 4000 vliegvelden (METAR en TAF).

De beschikbare stations zijn de gele en rode punten op de kaart.

Ga met uw muis naar het station om de naam te zien.

Klik dan om waarnemingen en weersverwachtingen te zien.

kaart wijzigen: klik op de groene knoppen met een zwart kruis om in te zoomen, op de groene knop met een streepje om uit te zoomen of op de groene pijlen voor aangrenzende kaarten.


METAR-TAF: